sensor_id;sensor_type;location;lat;lon;timestamp;pressure;altitude;pressure_sealevel;temperature;humidity
57668;BME280;43499;52.366;12.912;2023-01-29T00:00:45;102465.63;;;-1.91;92.98
57668;BME280;43499;52.366;12.912;2023-01-29T00:01:46;102443.31;;;-2.02;92.83
57668;BME280;43499;52.366;12.912;2023-01-29T00:02:47;102454.13;;;-1.93;93.83
57668;BME280;43499;52.366;12.912;2023-01-29T00:03:51;102450.41;;;-1.84;94.34
57668;BME280;43499;52.366;12.912;2023-01-29T00:04:52;102426.69;;;-1.98;93.88
57668;BME280;43499;52.366;12.912;2023-01-29T00:05:53;102426.44;;;-2.00;92.99
57668;BME280;43499;52.366;12.912;2023-01-29T00:06:54;102441.94;;;-1.94;92.94
57668;BME280;43499;52.366;12.912;2023-01-29T00:07:56;102428.81;;;-1.96;92.78
57668;BME280;43499;52.366;12.912;2023-01-29T00:08:57;102441.25;;;-1.88;92.55
57668;BME280;43499;52.366;12.912;2023-01-29T00:09:58;102439.88;;;-1.86;92.49
57668;BME280;43499;52.366;12.912;2023-01-29T00:11:00;102444.56;;;-1.83;91.93
57668;BME280;43499;52.366;12.912;2023-01-29T00:12:02;102442.66;;;-1.90;91.80
57668;BME280;43499;52.366;12.912;2023-01-29T00:13:03;102450.16;;;-1.91;92.19
57668;BME280;43499;52.366;12.912;2023-01-29T00:14:05;102437.69;;;-1.99;92.26
57668;BME280;43499;52.366;12.912;2023-01-29T00:15:07;102446.19;;;-1.89;92.06
57668;BME280;43499;52.366;12.912;2023-01-29T00:16:09;102454.84;;;-1.89;92.50
57668;BME280;43499;52.366;12.912;2023-01-29T00:17:10;102430.66;;;-2.00;92.17
57668;BME280;43499;52.366;12.912;2023-01-29T00:18:12;102438.63;;;-1.99;92.07
57668;BME280;43499;52.366;12.912;2023-01-29T00:19:16;102435.81;;;-2.00;92.54
57668;BME280;43499;52.366;12.912;2023-01-29T00:20:17;102429.97;;;-1.99;92.48
57668;BME280;43499;52.366;12.912;2023-01-29T00:21:20;102458.38;;;-1.88;92.19
57668;BME280;43499;52.366;12.912;2023-01-29T00:22:22;102443.59;;;-1.95;92.47
57668;BME280;43499;52.366;12.912;2023-01-29T00:23:23;102425.50;;;-2.00;92.33
57668;BME280;43499;52.366;12.912;2023-01-29T00:24:24;102432.78;;;-1.98;92.24
57668;BME280;43499;52.366;12.912;2023-01-29T00:25:25;102438.22;;;-1.91;92.34
57668;BME280;43499;52.366;12.912;2023-01-29T00:26:27;102419.16;;;-2.03;92.00
57668;BME280;43499;52.366;12.912;2023-01-29T00:27:28;102439.66;;;-1.87;91.84
57668;BME280;43499;52.366;12.912;2023-01-29T00:28:29;102435.88;;;-1.89;92.23
57668;BME280;43499;52.366;12.912;2023-01-29T00:29:30;102443.16;;;-1.87;92.32
57668;BME280;43499;52.366;12.912;2023-01-29T00:30:32;102411.94;;;-1.99;92.49
57668;BME280;43499;52.366;12.912;2023-01-29T00:31:33;102438.47;;;-1.83;92.31
57668;BME280;43499;52.366;12.912;2023-01-29T00:32:46;102398.31;;;-2.04;92.14
57668;BME280;43499;52.366;12.912;2023-01-29T00:33:50;102385.41;;;-2.10;92.30
57668;BME280;43499;52.366;12.912;2023-01-29T00:34:51;102441.97;;;-1.83;92.61
57668;BME280;43499;52.366;12.912;2023-01-29T00:35:52;102362.88;;;-2.22;92.72
57668;BME280;43499;52.366;12.912;2023-01-29T00:36:54;102335.91;;;-2.30;92.81
57668;BME280;43499;52.366;12.912;2023-01-29T00:38:14;102363.38;;;-2.13;92.32
57668;BME280;43499;52.366;12.912;2023-01-29T00:39:21;102361.00;;;-2.18;92.37
57668;BME280;43499;52.366;12.912;2023-01-29T00:40:25;102361.28;;;-2.05;92.12
57668;BME280;43499;52.366;12.912;2023-01-29T00:41:28;102373.75;;;-2.02;92.71
57668;BME280;43499;52.366;12.912;2023-01-29T00:42:54;102369.28;;;-2.03;92.25
57668;BME280;43499;52.366;12.912;2023-01-29T00:44:14;102378.94;;;-1.96;92.13
57668;BME280;43499;52.366;12.912;2023-01-29T00:45:34;102401.22;;;-1.80;92.67
57668;BME280;43499;52.366;12.912;2023-01-29T00:46:39;102372.84;;;-1.91;92.37
57668;BME280;43499;52.366;12.912;2023-01-29T00:47:43;102354.97;;;-2.07;92.51
57668;BME280;43499;52.366;12.912;2023-01-29T00:48:44;102339.44;;;-2.18;92.56
57668;BME280;43499;52.366;12.912;2023-01-29T00:49:48;102351.94;;;-2.10;93.00
57668;BME280;43499;52.366;12.912;2023-01-29T00:50:54;102386.72;;;-1.79;92.31
57668;BME280;43499;52.366;12.912;2023-01-29T00:51:56;102360.63;;;-1.98;92.02
57668;BME280;43499;52.366;12.912;2023-01-29T00:53:18;102355.47;;;-1.98;92.16
57668;BME280;43499;52.366;12.912;2023-01-29T00:54:19;102394.19;;;-1.81;92.03
57668;BME280;43499;52.366;12.912;2023-01-29T00:55:21;102362.31;;;-1.93;91.93
57668;BME280;43499;52.366;12.912;2023-01-29T00:56:27;102362.53;;;-1.91;92.12
57668;BME280;43499;52.366;12.912;2023-01-29T00:57:34;102318.63;;;-2.20;91.68
57668;BME280;43499;52.366;12.912;2023-01-29T00:58:35;102329.91;;;-2.08;91.90
57668;BME280;43499;52.366;12.912;2023-01-29T00:59:39;102320.03;;;-2.16;91.91
57668;BME280;43499;52.366;12.912;2023-01-29T01:00:43;102376.16;;;-1.81;92.15
57668;BME280;43499;52.366;12.912;2023-01-29T01:01:48;102346.81;;;-1.98;91.99
57668;BME280;43499;52.366;12.912;2023-01-29T01:03:08;102404.13;;;-1.61;92.04
57668;BME280;43499;52.366;12.912;2023-01-29T01:04:17;102313.72;;;-2.12;91.51
57668;BME280;43499;52.366;12.912;2023-01-29T01:05:21;102367.91;;;-1.90;91.88
57668;BME280;43499;52.366;12.912;2023-01-29T01:06:22;102326.41;;;-2.03;91.63
57668;BME280;43499;52.366;12.912;2023-01-29T01:07:23;102342.84;;;-1.96;91.75
57668;BME280;43499;52.366;12.912;2023-01-29T01:08:24;102363.03;;;-1.88;91.49
57668;BME280;43499;52.366;12.912;2023-01-29T01:09:47;102410.44;;;-1.65;91.87
57668;BME280;43499;52.366;12.912;2023-01-29T01:11:07;102358.56;;;-1.89;91.68
57668;BME280;43499;52.366;12.912;2023-01-29T01:12:08;102411.13;;;-1.60;92.04
57668;BME280;43499;52.366;12.912;2023-01-29T01:13:09;102383.00;;;-1.70;91.59
57668;BME280;43499;52.366;12.912;2023-01-29T01:14:10;102373.38;;;-1.77;91.98
57668;BME280;43499;52.366;12.912;2023-01-29T01:15:14;102396.59;;;-1.65;91.81
57668;BME280;43499;52.366;12.912;2023-01-29T01:16:19;102405.75;;;-1.62;92.05
57668;BME280;43499;52.366;12.912;2023-01-29T01:17:21;102334.63;;;-1.99;91.07
57668;BME280;43499;52.366;12.912;2023-01-29T01:18:28;102363.25;;;-1.87;91.57
57668;BME280;43499;52.366;12.912;2023-01-29T01:19:40;102416.31;;;-1.55;91.71
57668;BME280;43499;52.366;12.912;2023-01-29T01:20:44;102370.31;;;-1.80;91.16
57668;BME280;43499;52.366;12.912;2023-01-29T01:21:46;102358.59;;;-1.83;91.61
57668;BME280;43499;52.366;12.912;2023-01-29T01:22:52;102342.41;;;-1.88;92.04
57668;BME280;43499;52.366;12.912;2023-01-29T01:23:59;102372.91;;;-1.74;91.90
57668;BME280;43499;52.366;12.912;2023-01-29T01:25:06;102407.88;;;-1.53;92.03
57668;BME280;43499;52.366;12.912;2023-01-29T01:28:05;102384.22;;;-1.62;91.41
57668;BME280;43499;52.366;12.912;2023-01-29T01:29:37;102411.19;;;-1.49;92.03
57668;BME280;43499;52.366;12.912;2023-01-29T01:30:47;102336.75;;;-1.91;91.66
57668;BME280;43499;52.366;12.912;2023-01-29T01:31:53;102354.13;;;-1.84;92.15
57668;BME280;43499;52.366;12.912;2023-01-29T01:32:54;102393.81;;;-1.61;91.83
57668;BME280;43499;52.366;12.912;2023-01-29T01:33:55;102399.00;;;-1.56;91.79
57668;BME280;43499;52.366;12.912;2023-01-29T01:34:56;102370.59;;;-1.73;91.59
57668;BME280;43499;52.366;12.912;2023-01-29T01:36:00;102382.75;;;-1.66;91.61
57668;BME280;43499;52.366;12.912;2023-01-29T01:37:01;102397.81;;;-1.58;91.69
57668;BME280;43499;52.366;12.912;2023-01-29T01:38:02;102398.75;;;-1.51;91.84
57668;BME280;43499;52.366;12.912;2023-01-29T01:39:03;102397.81;;;-1.58;91.52
57668;BME280;43499;52.366;12.912;2023-01-29T01:40:07;102405.78;;;-1.50;91.98
57668;BME280;43499;52.366;12.912;2023-01-29T01:41:14;102402.75;;;-1.48;91.82
57668;BME280;43499;52.366;12.912;2023-01-29T01:42:16;102380.19;;;-1.60;91.78
57668;BME280;43499;52.366;12.912;2023-01-29T01:43:17;102384.44;;;-1.61;92.00
57668;BME280;43499;52.366;12.912;2023-01-29T01:44:53;102413.75;;;-1.49;91.79
57668;BME280;43499;52.366;12.912;2023-01-29T01:45:56;102413.06;;;-1.48;92.16
57668;BME280;43499;52.366;12.912;2023-01-29T01:46:59;102401.56;;;-1.56;91.52
57668;BME280;43499;52.366;12.912;2023-01-29T01:48:18;102414.50;;;-1.44;91.50
57668;BME280;43499;52.366;12.912;2023-01-29T01:49:21;102397.34;;;-1.55;91.89
57668;BME280;43499;52.366;12.912;2023-01-29T01:50:43;102401.59;;;-1.50;91.77
57668;BME280;43499;52.366;12.912;2023-01-29T01:51:47;102413.50;;;-1.56;92.00
57668;BME280;43499;52.366;12.912;2023-01-29T01:52:52;102395.22;;;-1.58;91.88
57668;BME280;43499;52.366;12.912;2023-01-29T01:54:00;102392.41;;;-1.59;92.01
57668;BME280;43499;52.366;12.912;2023-01-29T01:55:03;102419.38;;;-1.51;92.10
57668;BME280;43499;52.366;12.912;2023-01-29T01:56:13;102410.00;;;-1.57;92.43
57668;BME280;43499;52.366;12.912;2023-01-29T01:57:17;102418.47;;;-1.52;92.34
57668;BME280;43499;52.366;12.912;2023-01-29T01:58:27;102418.91;;;-1.49;92.40
57668;BME280;43499;52.366;12.912;2023-01-29T01:59:32;102413.53;;;-1.50;92.56
57668;BME280;43499;52.366;12.912;2023-01-29T02:00:34;102391.69;;;-1.58;92.48
57668;BME280;43499;52.366;12.912;2023-01-29T02:01:42;102406.75;;;-1.44;92.56
57668;BME280;43499;52.366;12.912;2023-01-29T02:02:45;102408.16;;;-1.46;92.48
57668;BME280;43499;52.366;12.912;2023-01-29T02:04:11;102397.81;;;-1.52;92.73
57668;BME280;43499;52.366;12.912;2023-01-29T02:05:35;102400.84;;;-1.49;92.60
57668;BME280;43499;52.366;12.912;2023-01-29T02:06:57;102385.34;;;-1.60;92.40
57668;BME280;43499;52.366;12.912;2023-01-29T02:08:27;102384.66;;;-1.59;92.65
57668;BME280;43499;52.366;12.912;2023-01-29T02:10:03;102375.31;;;-1.59;92.74
57668;BME280;43499;52.366;12.912;2023-01-29T02:11:06;102395.69;;;-1.49;92.79
57668;BME280;43499;52.366;12.912;2023-01-29T02:12:10;102385.16;;;-1.50;92.99
57668;BME280;43499;52.366;12.912;2023-01-29T02:13:14;102351.81;;;-1.72;93.27
57668;BME280;43499;52.366;12.912;2023-01-29T02:14:19;102385.84;;;-1.51;93.46
57668;BME280;43499;52.366;12.912;2023-01-29T02:15:20;102370.81;;;-1.65;92.97
57668;BME280;43499;52.366;12.912;2023-01-29T02:16:21;102372.72;;;-1.59;92.74
57668;BME280;43499;52.366;12.912;2023-01-29T02:17:23;102366.88;;;-1.58;93.16
57668;BME280;43499;52.366;12.912;2023-01-29T02:18:24;102361.44;;;-1.65;93.13
57668;BME280;43499;52.366;12.912;2023-01-29T02:19:42;102373.41;;;-1.60;93.28
57668;BME280;43499;52.366;12.912;2023-01-29T02:21:09;102355.34;;;-1.71;93.09
57668;BME280;43499;52.366;12.912;2023-01-29T02:28:05;102374.34;;;-1.53;93.69
57668;BME280;43499;52.366;12.912;2023-01-29T02:30:35;102352.31;;;-1.57;94.13
57668;BME280;43499;52.366;12.912;2023-01-29T02:31:43;102364.31;;;-1.52;93.66
57668;BME280;43499;52.366;12.912;2023-01-29T02:32:59;102347.16;;;-1.63;93.78
57668;BME280;43499;52.366;12.912;2023-01-29T02:34:33;102310.50;;;-1.89;93.63
57668;BME280;43499;52.366;12.912;2023-01-29T02:36:12;102268.78;;;-2.09;93.73
57668;BME280;43499;52.366;12.912;2023-01-29T02:37:25;102315.94;;;-1.81;93.66
57668;BME280;43499;52.366;12.912;2023-01-29T02:38:52;102374.84;;;-1.50;94.17
57668;BME280;43499;52.366;12.912;2023-01-29T02:41:53;102288.94;;;-2.00;93.50
57668;BME280;43499;52.366;12.912;2023-01-29T02:43:20;102377.66;;;-1.43;93.89
57668;BME280;43499;52.366;12.912;2023-01-29T02:44:46;102383.28;;;-1.46;93.69
57668;BME280;43499;52.366;12.912;2023-01-29T02:46:07;102355.38;;;-1.54;93.75
57668;BME280;43499;52.366;12.912;2023-01-29T02:47:29;102371.56;;;-1.44;93.68
57668;BME280;43499;52.366;12.912;2023-01-29T02:48:57;102373.47;;;-1.43;93.46
57668;BME280;43499;52.366;12.912;2023-01-29T02:50:11;102368.50;;;-1.58;93.76
57668;BME280;43499;52.366;12.912;2023-01-29T02:51:25;102265.25;;;-2.04;94.13
57668;BME280;43499;52.366;12.912;2023-01-29T02:52:44;102377.44;;;-1.45;94.05
57668;BME280;43499;52.366;12.912;2023-01-29T02:53:52;102368.50;;;-1.47;94.79
57668;BME280;43499;52.366;12.912;2023-01-29T02:55:03;102332.13;;;-1.71;94.27
57668;BME280;43499;52.366;12.912;2023-01-29T02:56:12;102319.25;;;-1.71;94.89
57668;BME280;43499;52.366;12.912;2023-01-29T02:57:22;102367.59;;;-1.47;94.23
57668;BME280;43499;52.366;12.912;2023-01-29T02:58:41;102346.44;;;-1.67;94.14
57668;BME280;43499;52.366;12.912;2023-01-29T02:59:48;102305.84;;;-1.91;94.54
57668;BME280;43499;52.366;12.912;2023-01-29T03:00:55;102340.59;;;-1.66;94.35
57668;BME280;43499;52.366;12.912;2023-01-29T03:02:07;102352.59;;;-1.56;94.53
57668;BME280;43499;52.366;12.912;2023-01-29T03:03:15;102304.22;;;-1.85;94.85
57668;BME280;43499;52.366;12.912;2023-01-29T03:04:42;102282.13;;;-2.00;94.52
57668;BME280;43499;52.366;12.912;2023-01-29T03:06:01;102367.34;;;-1.49;94.83
57668;BME280;43499;52.366;12.912;2023-01-29T03:07:10;102318.97;;;-1.78;94.38
57668;BME280;43499;52.366;12.912;2023-01-29T03:08:42;102366.19;;;-1.51;94.74
57668;BME280;43499;52.366;12.912;2023-01-29T03:09:51;102260.81;;;-1.99;94.63
57668;BME280;43499;52.366;12.912;2023-01-29T03:11:02;102270.44;;;-1.98;94.49
57668;BME280;43499;52.366;12.912;2023-01-29T03:12:13;102268.13;;;-1.91;94.43
57668;BME280;43499;52.366;12.912;2023-01-29T03:13:42;102343.41;;;-1.59;94.40
57668;BME280;43499;52.366;12.912;2023-01-29T03:14:49;102338.25;;;-1.59;95.46
57668;BME280;43499;52.366;12.912;2023-01-29T03:16:14;102358.91;;;-1.42;94.60
57668;BME280;43499;52.366;12.912;2023-01-29T03:17:28;102357.28;;;-1.42;94.13
57668;BME280;43499;52.366;12.912;2023-01-29T03:22:04;102361.28;;;-1.38;94.46
57668;BME280;43499;52.366;12.912;2023-01-29T03:33:34;102355.91;;;-1.34;94.50
57668;BME280;43499;52.366;12.912;2023-01-29T05:10:14;102190.34;;;-1.43;100.00
57668;BME280;43499;52.366;12.912;2023-01-29T05:21:35;102159.63;;;-1.58;100.00
57668;BME280;43499;52.366;12.912;2023-01-29T05:35:44;102247.53;;;-1.05;100.00
57668;BME280;43499;52.366;12.912;2023-01-29T05:55:46;102257.13;;;-0.99;100.00
57668;BME280;43499;52.366;12.912;2023-01-29T06:53:37;102217.31;;;-1.35;100.00
57668;BME280;43499;52.366;12.912;2023-01-29T07:17:07;102183.28;;;-1.21;100.00
57668;BME280;43499;52.366;12.912;2023-01-29T07:18:08;102280.31;;;-0.70;100.00
57668;BME280;43499;52.366;12.912;2023-01-29T07:19:13;102240.69;;;-0.94;100.00
57668;BME280;43499;52.366;12.912;2023-01-29T07:20:14;102264.38;;;-0.85;100.00
57668;BME280;43499;52.366;12.912;2023-01-29T07:21:15;102240.69;;;-0.99;100.00
57668;BME280;43499;52.366;12.912;2023-01-29T07:22:23;102175.78;;;-1.31;100.00
57668;BME280;43499;52.366;12.912;2023-01-29T07:23:30;102235.06;;;-0.97;100.00
57668;BME280;43499;52.366;12.912;2023-01-29T07:24:31;102225.91;;;-0.95;100.00
57668;BME280;43499;52.366;12.912;2023-01-29T07:25:33;102274.91;;;-0.72;100.00
57668;BME280;43499;52.366;12.912;2023-01-29T07:26:34;102231.75;;;-0.90;100.00
57668;BME280;43499;52.366;12.912;2023-01-29T07:27:35;102171.28;;;-1.15;100.00
57668;BME280;43499;52.366;12.912;2023-01-29T07:28:37;102263.38;;;-0.63;100.00
57668;BME280;43499;52.366;12.912;2023-01-29T07:29:42;102217.91;;;-0.85;100.00
57668;BME280;43499;52.366;12.912;2023-01-29T07:30:47;102174.28;;;-1.00;100.00
57668;BME280;43499;52.366;12.912;2023-01-29T07:31:49;102211.34;;;-0.83;100.00
57668;BME280;43499;52.366;12.912;2023-01-29T07:33:03;102207.09;;;-0.76;100.00
57668;BME280;43499;52.366;12.912;2023-01-29T07:34:07;102236.16;;;-0.66;100.00
57668;BME280;43499;52.366;12.912;2023-01-29T07:35:09;102256.78;;;-0.55;100.00
57668;BME280;43499;52.366;12.912;2023-01-29T07:36:18;102219.53;;;-0.80;100.00
57668;BME280;43499;52.366;12.912;2023-01-29T07:37:19;102240.16;;;-0.74;100.00
57668;BME280;43499;52.366;12.912;2023-01-29T07:38:29;102209.22;;;-0.91;100.00
57668;BME280;43499;52.366;12.912;2023-01-29T07:39:49;102244.16;;;-0.70;100.00
57668;BME280;43499;52.366;12.912;2023-01-29T07:40:53;102253.97;;;-0.56;100.00
57668;BME280;43499;52.366;12.912;2023-01-29T07:42:08;102186.25;;;-0.89;100.00
57668;BME280;43499;52.366;12.912;2023-01-29T07:43:17;102204.50;;;-0.76;100.00
57668;BME280;43499;52.366;12.912;2023-01-29T07:44:21;102192.34;;;-0.89;100.00
57668;BME280;43499;52.366;12.912;2023-01-29T07:45:22;102209.94;;;-0.81;100.00
57668;BME280;43499;52.366;12.912;2023-01-29T07:46:26;102236.84;;;-0.67;100.00
57668;BME280;43499;52.366;12.912;2023-01-29T07:47:33;102227.00;;;-0.70;100.00
57668;BME280;43499;52.366;12.912;2023-01-29T07:48:37;102201.00;;;-0.83;100.00
57668;BME280;43499;52.366;12.912;2023-01-29T07:49:38;102187.16;;;-0.83;100.00
57668;BME280;43499;52.366;12.912;2023-01-29T07:50:40;102195.59;;;-0.79;100.00
57668;BME280;43499;52.366;12.912;2023-01-29T07:51:53;102229.53;;;-0.53;100.00
57668;BME280;43499;52.366;12.912;2023-01-29T07:52:55;102219.22;;;-0.58;100.00
57668;BME280;43499;52.366;12.912;2023-01-29T07:54:06;102233.94;;;-0.40;100.00
57668;BME280;43499;52.366;12.912;2023-01-29T07:55:08;102223.16;;;-0.49;100.00
57668;BME280;43499;52.366;12.912;2023-01-29T07:56:12;102170.25;;;-0.81;100.00
57668;BME280;43499;52.366;12.912;2023-01-29T07:57:13;102212.16;;;-0.54;100.00
57668;BME280;43499;52.366;12.912;2023-01-29T07:58:17;102244.72;;;-0.32;100.00
57668;BME280;43499;52.366;12.912;2023-01-29T07:59:31;102228.78;;;-0.40;100.00
57668;BME280;43499;52.366;12.912;2023-01-29T08:00:41;102207.00;;;-0.54;100.00
57668;BME280;43499;52.366;12.912;2023-01-29T08:01:46;102202.09;;;-0.58;100.00
57668;BME280;43499;52.366;12.912;2023-01-29T08:02:49;102167.66;;;-0.75;100.00
57668;BME280;43499;52.366;12.912;2023-01-29T08:04:02;102203.25;;;-0.56;100.00
57668;BME280;43499;52.366;12.912;2023-01-29T08:05:03;102185.47;;;-0.66;100.00
57668;BME280;43499;52.366;12.912;2023-01-29T08:06:05;102229.72;;;-0.45;100.00
57668;BME280;43499;52.366;12.912;2023-01-29T08:07:08;102203.91;;;-0.51;100.00
57668;BME280;43499;52.366;12.912;2023-01-29T08:08:12;102249.16;;;-0.25;100.00
57668;BME280;43499;52.366;12.912;2023-01-29T08:09:19;102181.19;;;-0.59;100.00
57668;BME280;43499;52.366;12.912;2023-01-29T08:10:20;102248.47;;;-0.29;100.00
57668;BME280;43499;52.366;12.912;2023-01-29T08:11:39;102252.38;;;-0.14;100.00
57668;BME280;43499;52.366;12.912;2023-01-29T08:12:58;102205.00;;;-0.32;100.00
57668;BME280;43499;52.366;12.912;2023-01-29T08:14:00;102221.91;;;-0.28;100.00
57668;BME280;43499;52.366;12.912;2023-01-29T08:15:09;102220.94;;;-0.23;100.00
57668;BME280;43499;52.366;12.912;2023-01-29T08:16:19;102212.97;;;-0.25;100.00
57668;BME280;43499;52.366;12.912;2023-01-29T08:19:17;102153.00;;;-0.52;100.00
57668;BME280;43499;52.366;12.912;2023-01-29T08:20:21;102201.97;;;-0.29;100.00
57668;BME280;43499;52.366;12.912;2023-01-29T08:21:40;102219.50;;;-0.16;100.00
57668;BME280;43499;52.366;12.912;2023-01-29T08:22:57;102221.84;;;-0.17;100.00
57668;BME280;43499;52.366;12.912;2023-01-29T08:24:06;102168.53;;;-0.58;100.00
57668;BME280;43499;52.366;12.912;2023-01-29T08:25:18;102219.53;;;-0.21;100.00
57668;BME280;43499;52.366;12.912;2023-01-29T08:26:19;102176.22;;;-0.47;100.00
57668;BME280;43499;52.366;12.912;2023-01-29T08:27:31;102185.97;;;-0.27;100.00
57668;BME280;43499;52.366;12.912;2023-01-29T08:28:35;102169.81;;;-0.37;100.00
57668;BME280;43499;52.366;12.912;2023-01-29T08:29:47;102113.38;;;-0.64;100.00
57668;BME280;43499;52.366;12.912;2023-01-29T08:30:48;102144.47;;;-0.45;100.00
57668;BME280;43499;52.366;12.912;2023-01-29T08:31:58;102207.19;;;0.01;100.00
57668;BME280;43499;52.366;12.912;2023-01-29T08:33:06;102207.84;;;0.05;100.00
57668;BME280;43499;52.366;12.912;2023-01-29T08:34:07;102153.28;;;-0.26;100.00
57668;BME280;43499;52.366;12.912;2023-01-29T08:35:08;102145.16;;;-0.35;100.00
57668;BME280;43499;52.366;12.912;2023-01-29T08:36:18;102169.72;;;-0.20;100.00
57668;BME280;43499;52.366;12.912;2023-01-29T08:37:19;102221.41;;;0.15;100.00
57668;BME280;43499;52.366;12.912;2023-01-29T08:38:26;102160.72;;;-0.11;100.00
57668;BME280;43499;52.366;12.912;2023-01-29T08:39:29;102160.31;;;-0.20;100.00
57668;BME280;43499;52.366;12.912;2023-01-29T08:40:32;102134.53;;;-0.31;100.00
57668;BME280;43499;52.366;12.912;2023-01-29T08:41:37;102162.81;;;-0.08;100.00
57668;BME280;43499;52.366;12.912;2023-01-29T08:42:41;102168.22;;;-0.07;100.00
57668;BME280;43499;52.366;12.912;2023-01-29T08:44:11;102210.41;;;0.11;100.00
57668;BME280;43499;52.366;12.912;2023-01-29T08:45:38;102217.88;;;0.21;100.00
57668;BME280;43499;52.366;12.912;2023-01-29T08:46:49;102188.16;;;0.00;100.00
57668;BME280;43499;52.366;12.912;2023-01-29T08:47:53;102159.78;;;-0.11;100.00
57668;BME280;43499;52.366;12.912;2023-01-29T08:49:02;102148.75;;;-0.16;100.00
57668;BME280;43499;52.366;12.912;2023-01-29T08:50:09;102153.22;;;-0.15;100.00
57668;BME280;43499;52.366;12.912;2023-01-29T08:51:32;102185.06;;;0.03;100.00
57668;BME280;43499;52.366;12.912;2023-01-29T08:52:45;102145.03;;;-0.18;100.00
57668;BME280;43499;52.366;12.912;2023-01-29T08:53:49;102231.13;;;0.35;100.00
57668;BME280;43499;52.366;12.912;2023-01-29T08:54:52;102188.50;;;0.14;100.00
57668;BME280;43499;52.366;12.912;2023-01-29T08:56:04;102204.66;;;0.25;100.00
57668;BME280;43499;52.366;12.912;2023-01-29T08:57:15;102223.38;;;0.35;100.00
57668;BME280;43499;52.366;12.912;2023-01-29T08:58:32;102196.47;;;0.22;100.00
57668;BME280;43499;52.366;12.912;2023-01-29T08:59:45;102174.16;;;0.17;100.00
57668;BME280;43499;52.366;12.912;2023-01-29T09:00:50;102117.00;;;-0.09;100.00
57668;BME280;43499;52.366;12.912;2023-01-29T09:01:55;102208.75;;;0.41;100.00
57668;BME280;43499;52.366;12.912;2023-01-29T09:03:08;102213.72;;;0.40;100.00
57668;BME280;43499;52.366;12.912;2023-01-29T09:04:10;102153.47;;;0.17;100.00
57668;BME280;43499;52.366;12.912;2023-01-29T09:05:11;102187.56;;;0.44;100.00
57668;BME280;43499;52.366;12.912;2023-01-29T09:06:13;102120.13;;;0.12;100.00
57668;BME280;43499;52.366;12.912;2023-01-29T09:07:14;102140.28;;;0.21;100.00
57668;BME280;43499;52.366;12.912;2023-01-29T09:08:15;102175.28;;;0.49;100.00
57668;BME280;43499;52.366;12.912;2023-01-29T09:09:33;102126.66;;;0.22;100.00
57668;BME280;43499;52.366;12.912;2023-01-29T09:11:00;102208.91;;;0.79;100.00
57668;BME280;43499;52.366;12.912;2023-01-29T09:12:10;102151.28;;;0.50;100.00
57668;BME280;43499;52.366;12.912;2023-01-29T09:13:23;102106.63;;;0.26;100.00
57668;BME280;43499;52.366;12.912;2023-01-29T09:14:27;102203.31;;;0.94;100.00
57668;BME280;43499;52.366;12.912;2023-01-29T09:16:09;102201.38;;;0.99;100.00
57668;BME280;43499;52.366;12.912;2023-01-29T09:17:13;102186.41;;;0.90;100.00
57668;BME280;43499;52.366;12.912;2023-01-29T09:18:31;102139.75;;;0.77;100.00
57668;BME280;43499;52.366;12.912;2023-01-29T09:19:36;102206.09;;;1.01;100.00
57668;BME280;43499;52.366;12.912;2023-01-29T09:20:37;102101.88;;;0.54;100.00
57668;BME280;43499;52.366;12.912;2023-01-29T09:21:50;102196.31;;;1.12;100.00
57668;BME280;43499;52.366;12.912;2023-01-29T09:25:08;102135.41;;;0.84;100.00
57668;BME280;43499;52.366;12.912;2023-01-29T09:34:13;102198.41;;;1.33;98.51
57668;BME280;43499;52.366;12.912;2023-01-29T09:35:58;102201.06;;;1.27;98.25
57668;BME280;43499;52.366;12.912;2023-01-29T09:37:49;102198.84;;;1.36;96.89
57668;BME280;43499;52.366;12.912;2023-01-29T09:39:57;102107.53;;;0.94;97.34
57668;BME280;43499;52.366;12.912;2023-01-29T09:46:47;102089.06;;;1.54;93.36
57668;BME280;43499;52.366;12.912;2023-01-29T09:51:36;102175.53;;;2.75;88.49
57668;BME280;43499;52.366;12.912;2023-01-29T09:54:11;102176.31;;;3.33;84.27
57668;BME280;43499;52.366;12.912;2023-01-29T09:59:29;102139.22;;;5.60;71.71
57668;BME280;43499;52.366;12.912;2023-01-29T10:01:34;102140.91;;;5.81;70.90
57668;BME280;43499;52.366;12.912;2023-01-29T10:15:53;102112.81;;;6.44;66.43
57668;BME280;43499;52.366;12.912;2023-01-29T10:25:15;102017.97;;;7.97;58.49
57668;BME280;43499;52.366;12.912;2023-01-29T10:39:55;102027.97;;;6.18;63.49
57668;BME280;43499;52.366;12.912;2023-01-29T10:55:03;102093.97;;;6.17;65.39
57668;BME280;43499;52.366;12.912;2023-01-29T10:58:53;102094.47;;;6.66;64.86
57668;BME280;43499;52.366;12.912;2023-01-29T11:00:27;101985.66;;;6.14;63.58
57668;BME280;43499;52.366;12.912;2023-01-29T11:01:59;102007.84;;;5.60;65.08
57668;BME280;43499;52.366;12.912;2023-01-29T11:05:44;102077.56;;;6.33;64.45
57668;BME280;43499;52.366;12.912;2023-01-29T11:07:16;102012.72;;;5.64;65.32
57668;BME280;43499;52.366;12.912;2023-01-29T11:09:03;102080.34;;;5.62;66.14
57668;BME280;43499;52.366;12.912;2023-01-29T11:10:54;102077.72;;;5.77;67.44
57668;BME280;43499;52.366;12.912;2023-01-29T11:12:15;102075.31;;;5.71;67.14
57668;BME280;43499;52.366;12.912;2023-01-29T11:14:04;102070.19;;;5.15;68.22
57668;BME280;43499;52.366;12.912;2023-01-29T11:15:25;101982.22;;;4.70;68.87
57668;BME280;43499;52.366;12.912;2023-01-29T11:16:46;102053.53;;;4.92;68.94
57668;BME280;43499;52.366;12.912;2023-01-29T11:18:12;102057.94;;;4.72;70.26
57668;BME280;43499;52.366;12.912;2023-01-29T11:19:44;101971.03;;;3.88;71.81
57668;BME280;43499;52.366;12.912;2023-01-29T11:20:58;102004.88;;;3.95;72.52
57668;BME280;43499;52.366;12.912;2023-01-29T11:22:00;101983.63;;;3.84;73.20